Summit Station, Ohio
Current Conditions -  °F | °C
As of 11:51 AM on Thursday 18 Dec 2014 (Local Time) from KCMH Reporting Station
Overcast Overcast  
Wind Chill: 22°   Ceiling: 2000
Heat Index: 28°   Visibility: 9mi
Dew Point: 20°   Wind: 6mph
Humidity: 72%   Direction: 280°W
Pressure: 30.24"   Gusts: NA
Location:  40°N, 82.75°W
Report Text: KCMH 181651Z 28005KT 9SM OVC020 M02/M07 A3024 RMK AO2 SLP249 T10221067
Loading
Personal Weather Stations






























Interactive Weather Map New forecast layout! Learn more

10-Day Weather Forecast

Advertisements
Track Severe Weather on mobile